Time;durP1;ratioP1;P1;durP2;ratioP2;P2;SDS_P1;SDS_P2;PMS_P1;PMS_P2;Temp;Humidity;BMP_temperature;BMP_pressure;BME280_temperature;BME280_humidity;BME280_pressure;Samples;Min_cycle;Max_cycle;Signal;HPM_P1;HPM_P2
2021/08/14 00:00:40;;;;;;;12.73;9.30;;;20.80;99.90;;;;;;5006287;28;20255;-60
2021/08/14 00:03:05;;;;;;;15.63;9.90;;;20.80;99.90;;;;;;5007402;28;20185;-60
2021/08/14 00:05:31;;;;;;;16.57;9.57;;;20.80;99.90;;;;;;5008921;28;20172;-59
2021/08/14 00:07:57;;;;;;;14.80;9.57;;;20.80;99.90;;;;;;5007521;28;20201;-60
2021/08/14 00:10:22;;;;;;;12.83;9.60;;;20.80;99.90;;;;;;5009756;28;20184;-60
2021/08/14 00:12:48;;;;;;;17.87;9.63;;;20.80;99.90;;;;;;5011421;28;20311;-61
2021/08/14 00:15:13;;;;;;;20.37;9.93;;;20.70;99.90;;;;;;5011387;28;20290;-60
2021/08/14 00:17:39;;;;;;;24.63;9.47;;;20.70;99.90;;;;;;5011686;28;20702;-60
2021/08/14 00:20:06;;;;;;;14.70;9.23;;;20.70;99.90;;;;;;5011487;28;20254;-60
2021/08/14 00:22:32;;;;;;;13.83;9.10;;;20.70;99.90;;;;;;5011891;28;20176;-59
2021/08/14 00:24:57;;;;;;;20.10;10.60;;;20.60;99.90;;;;;;5011089;28;20920;-60
2021/08/14 00:27:23;;;;;;;14.53;10.10;;;20.60;99.90;;;;;;5011038;28;20195;-61
2021/08/14 00:29:49;;;;;;;15.83;9.33;;;20.60;99.90;;;;;;5011196;28;20542;-60
2021/08/14 00:32:14;;;;;;;15.40;9.27;;;20.60;99.90;;;;;;5010944;28;20181;-60
2021/08/14 00:34:40;;;;;;;18.73;11.10;;;20.50;99.90;;;;;;5010612;28;20238;-60
2021/08/14 00:37:06;;;;;;;15.67;9.57;;;20.50;99.90;;;;;;5011255;28;20661;-61
2021/08/14 00:39:32;;;;;;;13.97;9.40;;;20.50;99.90;;;;;;5011412;28;20697;-61
2021/08/14 00:41:58;;;;;;;15.73;10.30;;;20.50;99.90;;;;;;5010774;28;20186;-60
2021/08/14 00:44:24;;;;;;;11.87;10.20;;;20.40;99.90;;;;;;5011760;28;20308;-60
2021/08/14 00:46:49;;;;;;;13.93;9.77;;;20.40;99.90;;;;;;5010799;28;20212;-59
2021/08/14 00:49:15;;;;;;;11.40;8.93;;;20.40;99.90;;;;;;5010315;28;20422;-60
2021/08/14 00:51:42;;;;;;;15.20;9.80;;;20.40;99.90;;;;;;5007916;28;20184;-59
2021/08/14 00:54:08;;;;;;;14.47;9.27;;;20.40;99.90;;;;;;5010620;28;20579;-60
2021/08/14 00:56:34;;;;;;;11.57;9.30;;;20.40;99.90;;;;;;5010981;28;20426;-60
2021/08/14 00:59:00;;;;;;;16.17;10.70;;;20.40;99.90;;;;;;5010377;28;20907;-60
2021/08/14 01:01:26;;;;;;;19.50;10.30;;;20.40;99.90;;;;;;5010863;28;20455;-60
2021/08/14 01:03:56;;;;;;;13.77;9.40;;;20.30;99.90;;;;;;5010687;28;20173;-60
2021/08/14 01:06:23;;;;;;;14.57;9.13;;;20.30;99.90;;;;;;5009729;28;20428;-60
2021/08/14 01:08:50;;;;;;;12.40;9.47;;;20.30;99.90;;;;;;5005677;28;20800;-60
2021/08/14 01:11:16;;;;;;;13.30;8.80;;;20.30;99.90;;;;;;5003511;28;20423;-60
2021/08/14 01:13:44;;;;;;;14.53;9.80;;;20.30;99.90;;;;;;5010651;28;20455;-59
2021/08/14 01:16:10;;;;;;;23.53;9.97;;;20.30;99.90;;;;;;5009953;28;20839;-60
2021/08/14 01:18:43;;;;;;;17.43;9.70;;;20.30;99.90;;;;;;5010379;28;20396;-60
2021/08/14 01:21:09;;;;;;;11.83;9.57;;;20.20;99.90;;;;;;5010149;28;20192;-60
2021/08/14 01:23:35;;;;;;;18.67;10.40;;;20.20;99.90;;;;;;5010456;28;20942;-60
2021/08/14 01:26:08;;;;;;;16.33;10.60;;;20.20;99.90;;;;;;4994685;28;20459;-60
2021/08/14 01:28:36;;;;;;;16.50;10.07;;;20.20;99.90;;;;;;5008258;28;20177;-60
2021/08/14 01:31:03;;;;;;;14.40;9.90;;;20.20;99.90;;;;;;5010417;28;20462;-60
2021/08/14 01:33:37;;;;;;;15.07;10.20;;;20.20;99.90;;;;;;5006145;28;20911;-61
2021/08/14 01:36:04;;;;;;;14.60;10.77;;;20.10;99.90;;;;;;5010412;28;20427;-59
2021/08/14 01:38:30;;;;;;;10.73;8.37;;;20.10;99.90;;;;;;5009598;28;20407;-60
2021/08/14 01:40:56;;;;;;;14.20;9.47;;;20.10;99.90;;;;;;5010072;28;21018;-60
2021/08/14 01:43:21;;;;;;;12.90;8.50;;;20.10;99.90;;;;;;5001919;28;20169;-60
2021/08/14 01:45:48;;;;;;;12.83;8.87;;;20.00;99.90;;;;;;5009079;28;20242;-60
2021/08/14 01:48:14;;;;;;;13.00;9.30;;;20.00;99.90;;;;;;5009305;28;20208;-61
2021/08/14 01:50:40;;;;;;;18.03;8.67;;;20.00;99.90;;;;;;5005918;28;20432;-60
2021/08/14 01:53:06;;;;;;;11.27;8.93;;;20.10;99.90;;;;;;5004942;28;20879;-60
2021/08/14 01:55:31;;;;;;;13.10;9.33;;;20.10;99.90;;;;;;5009877;28;20195;-59
2021/08/14 01:57:57;;;;;;;16.30;9.27;;;20.00;99.90;;;;;;5009228;28;20565;-60
2021/08/14 02:00:23;;;;;;;17.70;9.23;;;20.00;99.90;;;;;;5009100;28;20673;-60
2021/08/14 02:02:48;;;;;;;18.20;8.90;;;20.00;99.90;;;;;;5008078;28;20649;-60
2021/08/14 02:05:14;;;;;;;13.80;8.83;;;19.90;99.90;;;;;;5009718;28;20419;-60
2021/08/14 02:07:40;;;;;;;14.87;8.63;;;19.90;99.90;;;;;;5008913;28;20655;-60
2021/08/14 02:10:07;;;;;;;12.30;8.47;;;19.90;99.90;;;;;;5009343;28;20187;-60
2021/08/14 02:12:32;;;;;;;13.37;9.10;;;19.80;99.90;;;;;;5009030;28;20431;-60
2021/08/14 02:14:58;;;;;;;10.43;7.77;;;19.80;99.90;;;;;;5004393;28;20439;-60
2021/08/14 02:17:23;;;;;;;13.70;8.50;;;19.80;99.90;;;;;;5007392;28;20283;-60
2021/08/14 02:19:49;;;;;;;10.47;8.40;;;19.70;99.90;;;;;;5007368;28;20260;-61
2021/08/14 02:22:15;;;;;;;12.17;8.80;;;19.70;99.90;;;;;;5008374;28;20590;-59
2021/08/14 02:24:40;;;;;;;13.50;9.10;;;19.70;99.90;;;;;;5008012;28;20180;-60
2021/08/14 02:27:06;;;;;;;14.97;9.27;;;19.70;99.90;;;;;;5007663;28;20196;-59
2021/08/14 02:29:33;;;;;;;13.40;8.70;;;19.60;99.90;;;;;;5001482;28;20582;-59
2021/08/14 02:31:59;;;;;;;18.70;9.90;;;19.60;99.90;;;;;;5009753;28;20187;-59
2021/08/14 02:34:26;;;;;;;12.30;9.20;;;19.60;99.90;;;;;;5008153;28;20431;-59
2021/08/14 02:36:52;;;;;;;12.97;8.97;;;19.60;99.90;;;;;;5008906;28;20442;-60
2021/08/14 02:39:17;;;;;;;14.00;9.40;;;19.60;99.90;;;;;;5009575;28;20498;-60
2021/08/14 02:41:43;;;;;;;13.10;9.03;;;19.50;99.90;;;;;;5009076;28;20259;-59
2021/08/14 02:44:09;;;;;;;10.73;8.80;;;19.50;99.90;;;;;;5008591;28;20177;-59
2021/08/14 02:46:34;;;;;;;15.20;9.80;;;19.40;99.90;;;;;;5009002;28;20204;-59
2021/08/14 02:49:00;;;;;;;20.80;9.27;;;19.40;99.90;;;;;;5008471;28;20173;-59
2021/08/14 02:51:25;;;;;;;10.80;8.77;;;19.40;99.90;;;;;;5009240;28;20247;-59
2021/08/14 02:53:51;;;;;;;14.33;9.17;;;19.40;99.90;;;;;;5008251;28;20180;-59
2021/08/14 02:56:17;;;;;;;15.83;9.20;;;19.30;99.90;;;;;;5007244;28;20173;-59
2021/08/14 02:58:42;;;;;;;15.00;8.83;;;19.30;99.90;;;;;;5008675;28;20181;-59
2021/08/14 03:01:08;;;;;;;13.53;9.00;;;19.20;99.90;;;;;;5008597;28;20253;-59
2021/08/14 03:03:33;;;;;;;12.90;9.03;;;19.10;99.90;;;;;;5008837;28;20566;-59
2021/08/14 03:05:59;;;;;;;17.67;9.20;;;19.10;99.90;;;;;;5009201;28;20175;-58
2021/08/14 03:08:25;;;;;;;11.00;9.23;;;19.10;99.90;;;;;;5008878;28;20200;-59
2021/08/14 03:10:50;;;;;;;13.80;9.20;;;19.10;99.90;;;;;;5008401;28;20194;-59
2021/08/14 03:13:16;;;;;;;14.47;9.60;;;19.10;99.90;;;;;;5007984;28;20192;-58
2021/08/14 03:15:42;;;;;;;12.23;8.90;;;19.00;99.90;;;;;;5008693;28;20176;-59
2021/08/14 03:18:08;;;;;;;12.10;9.03;;;19.00;99.90;;;;;;5007960;28;20200;-59
2021/08/14 03:20:34;;;;;;;15.17;9.17;;;19.00;99.90;;;;;;5007164;28;20236;-59
2021/08/14 03:23:00;;;;;;;12.67;9.07;;;18.90;99.90;;;;;;5009525;28;20180;-60
2021/08/14 03:25:26;;;;;;;16.93;9.00;;;18.90;99.90;;;;;;5007531;28;20434;-59
2021/08/14 03:27:52;;;;;;;13.00;9.20;;;18.90;99.90;;;;;;5009065;28;20832;-59
2021/08/14 03:30:18;;;;;;;12.87;8.60;;;18.80;99.90;;;;;;5008993;28;20567;-60
2021/08/14 03:32:44;;;;;;;13.87;9.07;;;18.80;99.90;;;;;;5008335;28;20342;-60
2021/08/14 03:35:12;;;;;;;11.83;8.80;;;18.70;99.90;;;;;;5004226;28;20189;-60
2021/08/14 03:37:38;;;;;;;16.33;9.10;;;18.70;99.90;;;;;;5008085;28;20502;-60
2021/08/14 03:40:05;;;;;;;16.30;8.53;;;18.70;99.90;;;;;;5007842;28;20450;-60
2021/08/14 03:42:31;;;;;;;11.23;8.63;;;18.70;99.90;;;;;;5007099;28;20187;-59
2021/08/14 03:44:56;;;;;;;13.97;8.97;;;18.60;99.90;;;;;;5008474;28;20807;-59
2021/08/14 03:47:22;;;;;;;15.50;9.13;;;18.60;99.90;;;;;;5011457;28;20295;-60
2021/08/14 03:49:47;;;;;;;12.83;8.90;;;18.60;99.90;;;;;;5012253;28;20175;-59
2021/08/14 03:52:13;;;;;;;14.80;9.60;;;18.60;99.90;;;;;;5011361;28;20183;-59
2021/08/14 03:54:42;;;;;;;13.60;9.07;;;18.60;99.90;;;;;;5012605;28;20260;-60
2021/08/14 03:57:08;;;;;;;16.40;9.80;;;18.50;99.90;;;;;;5012171;28;20492;-59
2021/08/14 03:59:33;;;;;;;12.93;8.77;;;18.50;99.90;;;;;;5012054;28;20415;-59
2021/08/14 04:01:59;;;;;;;14.87;9.63;;;18.50;99.90;;;;;;5006061;28;20214;-59
2021/08/14 04:04:24;;;;;;;13.37;8.43;;;18.50;99.90;;;;;;5011467;28;20199;-60
2021/08/14 04:06:50;;;;;;;12.70;9.53;;;18.50;99.90;;;;;;5011171;28;20201;-59
2021/08/14 04:09:16;;;;;;;14.20;9.27;;;18.50;99.90;;;;;;5011241;28;20259;-59
2021/08/14 04:11:43;;;;;;;11.73;9.70;;;18.50;99.90;;;;;;5009959;28;20644;-60
2021/08/14 04:14:09;;;;;;;13.00;9.83;;;18.50;99.90;;;;;;5009920;28;20181;-60
2021/08/14 04:16:34;;;;;;;15.73;9.50;;;18.50;99.90;;;;;;5008765;28;20462;-59
2021/08/14 04:19:00;;;;;;;13.30;9.90;;;18.50;99.90;;;;;;5002002;28;20192;-59
2021/08/14 04:21:26;;;;;;;21.80;10.83;;;18.50;99.90;;;;;;5011295;28;20197;-59
2021/08/14 04:23:52;;;;;;;12.40;9.40;;;18.50;99.90;;;;;;5011421;28;20251;-60
2021/08/14 04:26:18;;;;;;;15.23;8.70;;;18.50;99.90;;;;;;5008894;28;20455;-60
2021/08/14 04:28:43;;;;;;;13.93;9.40;;;18.50;99.90;;;;;;5010747;28;20427;-59
2021/08/14 04:31:09;;;;;;;13.77;9.10;;;18.50;99.90;;;;;;5010211;28;20633;-59
2021/08/14 04:33:34;;;;;;;19.80;8.77;;;18.50;99.90;;;;;;5007427;28;20180;-60
2021/08/14 04:36:00;;;;;;;13.93;9.40;;;18.50;99.90;;;;;;5010043;28;20219;-59
2021/08/14 04:38:26;;;;;;;16.20;9.00;;;18.40;99.90;;;;;;5011752;28;20195;-60
2021/08/14 04:40:51;;;;;;;18.00;9.87;;;18.40;99.90;;;;;;5011816;28;20196;-59
2021/08/14 04:43:17;;;;;;;16.40;9.50;;;18.40;99.90;;;;;;5008907;28;20172;-59
2021/08/14 04:45:43;;;;;;;14.83;9.53;;;18.40;99.90;;;;;;5009621;28;20262;-59
2021/08/14 04:48:08;;;;;;;16.00;8.53;;;18.30;99.90;;;;;;5003123;28;20212;-60
2021/08/14 04:50:34;;;;;;;13.00;9.30;;;18.30;99.90;;;;;;5009115;28;20195;-59
2021/08/14 04:53:00;;;;;;;13.77;8.97;;;18.30;99.90;;;;;;5010396;28;20522;-59
2021/08/14 04:55:26;;;;;;;14.43;9.67;;;18.30;99.90;;;;;;5009742;28;20579;-59
2021/08/14 04:57:51;;;;;;;22.93;9.10;;;18.30;99.90;;;;;;5008727;28;20474;-59
2021/08/14 05:00:17;;;;;;;15.07;9.50;;;18.30;99.90;;;;;;5010514;28;20208;-60
2021/08/14 05:02:42;;;;;;;15.97;9.90;;;18.30;99.90;;;;;;5010945;28;20212;-59
2021/08/14 05:05:09;;;;;;;12.77;9.80;;;18.30;99.90;;;;;;5009957;28;20321;-58
2021/08/14 05:07:35;;;;;;;14.00;9.30;;;18.30;99.90;;;;;;5009563;28;20204;-59
2021/08/14 05:10:02;;;;;;;20.03;9.30;;;18.30;99.90;;;;;;5010790;28;20944;-59
2021/08/14 05:12:27;;;;;;;13.93;9.33;;;18.30;99.90;;;;;;5010867;28;20231;-60
2021/08/14 05:14:53;;;;;;;15.00;9.23;;;18.30;99.90;;;;;;5011013;28;20412;-59
2021/08/14 05:17:19;;;;;;;12.53;9.87;;;18.40;99.90;;;;;;5007172;28;20617;-59
2021/08/14 05:19:44;;;;;;;14.17;10.10;;;18.40;99.90;;;;;;5008277;28;20195;-60
2021/08/14 05:22:10;;;;;;;12.77;9.97;;;18.40;99.90;;;;;;5010959;28;20585;-60
2021/08/14 05:24:35;;;;;;;14.20;9.10;;;18.50;99.90;;;;;;4996371;28;20181;-59
2021/08/14 05:27:01;;;;;;;13.47;9.83;;;18.50;99.90;;;;;;4997261;28;20201;-61
2021/08/14 05:29:27;;;;;;;14.70;10.13;;;18.60;99.90;;;;;;5009865;28;20629;-59
2021/08/14 05:31:52;;;;;;;14.10;9.50;;;18.70;99.90;;;;;;5009614;28;20183;-60
2021/08/14 05:34:18;;;;;;;12.50;9.43;;;18.70;99.90;;;;;;5010299;28;20181;-59
2021/08/14 05:36:43;;;;;;;13.57;9.57;;;18.80;99.90;;;;;;5009646;28;20275;-59
2021/08/14 05:39:09;;;;;;;13.03;9.47;;;18.80;99.90;;;;;;5010303;28;20541;-59
2021/08/14 05:41:40;;;;;;;16.13;9.00;;;18.90;99.90;;;;;;5013287;28;20192;-60
2021/08/14 05:44:06;;;;;;;14.23;10.10;;;18.90;99.90;;;;;;5004433;28;20661;-59
2021/08/14 05:46:32;;;;;;;15.27;10.60;;;19.00;99.90;;;;;;5008025;28;20951;-59
2021/08/14 05:48:58;;;;;;;13.83;9.30;;;19.10;99.90;;;;;;4998732;28;20432;-59
2021/08/14 05:51:24;;;;;;;17.10;9.30;;;19.10;99.90;;;;;;5007558;28;20180;-59
2021/08/14 05:53:50;;;;;;;15.83;10.00;;;19.20;99.90;;;;;;5008591;28;20180;-59
2021/08/14 05:56:15;;;;;;;17.57;9.70;;;19.30;99.90;;;;;;5007779;28;20450;-61
2021/08/14 05:58:41;;;;;;;13.77;9.70;;;19.30;99.90;;;;;;5005555;28;20184;-61
2021/08/14 06:01:07;;;;;;;12.57;9.10;;;19.40;99.90;;;;;;5009069;28;20239;-59
2021/08/14 06:03:36;;;;;;;15.87;10.00;;;19.50;99.90;;;;;;5007234;28;20236;-59
2021/08/14 06:06:03;;;;;;;11.40;9.37;;;19.50;99.90;;;;;;5006546;28;20436;-60
2021/08/14 06:08:30;;;;;;;15.90;9.90;;;19.50;99.90;;;;;;5007720;28;20454;-60
2021/08/14 06:10:56;;;;;;;19.90;9.87;;;19.60;99.90;;;;;;5005890;28;20443;-60
2021/08/14 06:13:22;;;;;;;13.77;8.53;;;19.60;99.90;;;;;;5005315;28;20812;-61
2021/08/14 06:15:47;;;;;;;22.03;10.03;;;19.70;99.90;;;;;;5004890;28;20180;-59
2021/08/14 06:18:13;;;;;;;15.40;9.37;;;19.80;99.90;;;;;;5008013;28;20620;-59
2021/08/14 06:20:38;;;;;;;13.53;9.73;;;19.80;99.90;;;;;;5010898;28;20224;-59
2021/08/14 06:23:04;;;;;;;17.20;9.80;;;19.90;99.90;;;;;;5008252;28;20195;-59
2021/08/14 06:25:30;;;;;;;17.63;9.07;;;19.90;99.90;;;;;;5008455;28;20200;-60
2021/08/14 06:27:55;;;;;;;12.83;10.23;;;20.00;99.90;;;;;;5003032;28;20654;-62
2021/08/14 06:30:21;;;;;;;18.23;9.67;;;20.00;99.90;;;;;;5005837;28;20218;-60
2021/08/14 06:32:47;;;;;;;12.60;9.80;;;20.10;99.90;;;;;;5005244;28;20553;-58
2021/08/14 06:35:12;;;;;;;13.03;9.20;;;20.10;99.90;;;;;;5002232;28;20191;-58
2021/08/14 06:37:42;;;;;;;14.20;10.40;;;20.20;99.90;;;;;;5002016;28;20270;-58
2021/08/14 06:40:12;;;;;;;16.63;10.20;;;20.30;99.90;;;;;;5003500;28;20202;-61
2021/08/14 06:42:39;;;;;;;12.27;9.13;;;20.30;99.90;;;;;;5007431;28;20431;-58
2021/08/14 06:45:05;;;;;;;16.43;9.90;;;20.40;99.90;;;;;;5003555;28;20468;-60
2021/08/14 06:47:31;;;;;;;18.23;9.33;;;20.50;99.90;;;;;;5003752;28;20473;-59
2021/08/14 06:49:57;;;;;;;14.07;8.73;;;20.60;99.90;;;;;;4997958;28;20444;-59
2021/08/14 06:52:22;;;;;;;30.23;14.97;;;20.70;99.90;;;;;;5002806;28;20185;-58
2021/08/14 06:54:48;;;;;;;16.47;9.77;;;20.70;99.90;;;;;;5004490;28;20684;-58
2021/08/14 06:57:14;;;;;;;31.73;15.00;;;20.80;99.90;;;;;;4999943;28;20192;-58
2021/08/14 06:59:39;;;;;;;27.57;15.17;;;20.90;99.90;;;;;;5005230;28;20180;-60
2021/08/14 07:02:05;;;;;;;22.90;12.70;;;21.00;99.90;;;;;;5006472;28;20204;-60
2021/08/14 07:04:31;;;;;;;13.13;9.50;;;21.00;99.90;;;;;;5007988;28;20618;-59
2021/08/14 07:06:56;;;;;;;13.23;10.30;;;21.10;99.90;;;;;;5003963;28;20228;-59
2021/08/14 07:09:22;;;;;;;12.23;9.20;;;21.10;99.90;;;;;;5006495;28;20189;-59
2021/08/14 07:11:47;;;;;;;13.43;9.40;;;21.10;99.90;;;;;;5003647;28;20729;-59
2021/08/14 07:14:13;;;;;;;13.53;9.70;;;21.20;99.90;;;;;;5003035;28;20183;-58
2021/08/14 07:16:39;;;;;;;14.57;10.37;;;21.30;99.90;;;;;;5003391;28;20208;-59
2021/08/14 07:19:05;;;;;;;14.90;9.00;;;21.40;99.90;;;;;;4999403;28;20219;-59
2021/08/14 07:21:31;;;;;;;13.93;9.70;;;21.50;99.90;;;;;;5001752;28;20899;-59
2021/08/14 07:23:56;;;;;;;12.40;9.20;;;21.50;99.90;;;;;;4997819;28;20173;-59
2021/08/14 07:26:23;;;;;;;12.80;8.83;;;21.70;99.90;;;;;;4999861;28;20583;-60
2021/08/14 07:28:49;;;;;;;20.60;9.40;;;21.70;99.90;;;;;;5007024;28;20263;-60
2021/08/14 07:31:15;;;;;;;23.10;10.37;;;21.80;99.90;;;;;;4999245;28;20540;-59
2021/08/14 07:33:41;;;;;;;13.27;9.03;;;22.00;99.90;;;;;;5003093;28;20445;-59
2021/08/14 07:36:08;;;;;;;11.50;8.40;;;22.00;99.90;;;;;;5005828;28;20434;-59
2021/08/14 07:38:35;;;;;;;13.70;9.80;;;22.10;99.90;;;;;;5009870;28;20182;-60
2021/08/14 07:41:00;;;;;;;12.70;9.00;;;22.20;99.40;;;;;;5008117;28;20483;-60
2021/08/14 07:43:26;;;;;;;13.30;9.07;;;22.20;99.20;;;;;;5005678;28;21104;-59
2021/08/14 07:45:52;;;;;;;14.73;9.37;;;22.30;99.20;;;;;;5010714;28;20595;-62
2021/08/14 07:48:17;;;;;;;12.83;9.20;;;22.40;99.40;;;;;;5012443;28;20231;-59
2021/08/14 07:50:43;;;;;;;11.93;9.10;;;22.50;99.10;;;;;;5013201;28;20203;-59
2021/08/14 07:53:09;;;;;;;18.37;9.37;;;22.60;98.10;;;;;;5011942;28;20264;-60
2021/08/14 07:55:35;;;;;;;11.60;9.13;;;22.70;98.40;;;;;;5010016;28;20794;-59
2021/08/14 07:58:01;;;;;;;11.57;8.23;;;22.80;98.70;;;;;;5009850;28;20836;-61
2021/08/14 08:00:27;;;;;;;12.03;9.13;;;22.90;98.50;;;;;;5009043;28;20672;-60
2021/08/14 08:02:53;;;;;;;11.93;7.90;;;23.00;97.40;;;;;;5010590;28;20434;-60
2021/08/14 08:05:20;;;;;;;12.13;8.70;;;23.10;96.20;;;;;;5010702;28;20431;-60
2021/08/14 08:07:46;;;;;;;15.23;9.23;;;23.10;96.30;;;;;;5008460;28;20439;-61
2021/08/14 08:10:12;;;;;;;11.67;8.73;;;23.20;95.70;;;;;;5006966;28;20435;-60
2021/08/14 08:12:38;;;;;;;13.93;8.30;;;23.30;95.40;;;;;;5010749;28;20433;-60
2021/08/14 08:15:05;;;;;;;12.93;9.20;;;23.40;95.40;;;;;;5010002;28;20482;-60
2021/08/14 08:17:31;;;;;;;11.17;9.03;;;23.40;93.70;;;;;;5009156;28;20223;-59
2021/08/14 08:19:56;;;;;;;12.67;8.50;;;23.50;94.10;;;;;;5002644;28;20443;-59
2021/08/14 08:22:22;;;;;;;11.37;8.30;;;23.60;94.60;;;;;;5002816;28;20188;-60
2021/08/14 08:24:48;;;;;;;14.40;9.57;;;23.70;94.60;;;;;;5009426;28;20884;-60
2021/08/14 08:27:13;;;;;;;12.07;8.87;;;23.80;93.40;;;;;;5006667;28;20205;-59
2021/08/14 08:29:39;;;;;;;18.37;9.07;;;23.80;92.30;;;;;;5000017;28;21475;-62
2021/08/14 08:32:07;;;;;;;10.90;9.10;;;23.90;92.80;;;;;;4998300;28;20185;-60
2021/08/14 08:34:33;;;;;;;14.83;9.00;;;24.00;92.70;;;;;;5002714;28;20207;-59
2021/08/14 08:36:59;;;;;;;19.47;8.30;;;24.10;92.00;;;;;;4998556;28;20482;-59
2021/08/14 08:39:24;;;;;;;13.37;8.50;;;24.10;93.10;;;;;;4999724;28;20443;-61
2021/08/14 08:41:51;;;;;;;9.27;7.80;;;24.20;90.20;;;;;;5002196;28;20232;-59
2021/08/14 08:44:17;;;;;;;11.00;7.33;;;24.30;89.50;;;;;;5003261;28;20180;-61
2021/08/14 08:46:46;;;;;;;16.20;8.30;;;24.40;88.30;;;;;;5004663;28;20553;-58
2021/08/14 08:49:14;;;;;;;12.93;8.20;;;24.40;87.00;;;;;;4996704;28;20470;-59
2021/08/14 08:51:40;;;;;;;10.00;7.30;;;24.50;86.20;;;;;;5000189;28;20517;-61
2021/08/14 08:54:05;;;;;;;13.60;8.27;;;24.70;80.10;;;;;;4997298;28;20943;-61
2021/08/14 08:56:32;;;;;;;13.20;7.40;;;24.70;77.60;;;;;;5002677;28;20299;-61
2021/08/14 08:58:58;;;;;;;10.70;7.93;;;24.80;79.50;;;;;;5000791;28;20192;-57
2021/08/14 09:01:23;;;;;;;13.20;7.73;;;24.90;80.00;;;;;;5000455;28;20520;-63
2021/08/14 09:03:49;;;;;;;13.53;8.57;;;25.00;80.20;;;;;;5001738;28;20767;-60
2021/08/14 09:06:16;;;;;;;9.07;6.90;;;25.10;78.60;;;;;;5000726;28;20289;-59
2021/08/14 09:08:41;;;;;;;15.43;7.60;;;25.10;74.90;;;;;;5002200;28;20184;-61
2021/08/14 09:11:12;;;;;;;15.13;8.17;;;25.20;72.50;;;;;;5001804;28;20439;-61
2021/08/14 09:13:39;;;;;;;9.80;8.00;;;25.20;72.30;;;;;;5003166;28;20215;-61
2021/08/14 09:16:22;;;;;;;16.43;7.90;;;25.30;71.70;;;;;;5004533;28;20462;-62
2021/08/14 09:18:59;;;;;;;22.03;8.13;;;25.40;68.60;;;;;;4996691;28;20546;-59
2021/08/14 09:21:29;;;;;;;9.23;7.47;;;25.50;71.20;;;;;;5002479;28;21222;-60
2021/08/14 09:23:54;;;;;;;11.97;8.03;;;25.60;72.40;;;;;;4999655;28;20507;-62
2021/08/14 09:26:20;;;;;;;13.77;8.10;;;25.70;71.30;;;;;;5002291;28;20935;-62
2021/08/14 09:28:46;;;;;;;12.67;7.50;;;25.80;69.60;;;;;;5002125;28;20307;-61
2021/08/14 09:31:12;;;;;;;15.63;7.70;;;25.90;71.70;;;;;;4999832;28;20553;-60
2021/08/14 09:33:38;;;;;;;16.47;8.27;;;26.00;69.90;;;;;;5003415;28;20172;-59
2021/08/14 09:36:06;;;;;;;11.00;8.37;;;26.10;70.00;;;;;;5003178;28;20435;-59
2021/08/14 09:38:46;;;;;;;11.83;8.40;;;26.20;69.60;;;;;;5000305;28;20473;-60
2021/08/14 09:41:14;;;;;;;9.87;7.87;;;26.30;68.00;;;;;;5003451;28;20490;-60
2021/08/14 09:43:41;;;;;;;14.27;8.93;;;26.40;67.70;;;;;;4997333;28;20431;-61
2021/08/14 09:46:06;;;;;;;16.57;8.10;;;26.50;65.40;;;;;;5002108;28;20449;-60
2021/08/14 09:48:32;;;;;;;15.80;8.40;;;26.50;65.50;;;;;;5002984;28;20442;-60
2021/08/14 09:50:59;;;;;;;13.33;8.93;;;26.60;67.00;;;;;;5003765;28;20172;-60
2021/08/14 09:53:28;;;;;;;12.33;8.77;;;26.70;67.10;;;;;;5002589;28;20435;-59
2021/08/14 09:56:09;;;;;;;12.40;8.67;;;26.80;67.20;;;;;;5003274;28;21023;-60
2021/08/14 09:58:37;;;;;;;9.80;7.90;;;26.90;67.70;;;;;;5003749;28;20445;-60
2021/08/14 10:01:04;;;;;;;13.73;8.10;;;27.00;68.70;;;;;;5000193;28;20455;-61
2021/08/14 10:03:31;;;;;;;16.00;8.57;;;27.20;68.40;;;;;;5004337;28;20518;-60
2021/08/14 10:05:59;;;;;;;16.90;7.47;;;27.20;67.10;;;;;;5004985;28;20431;-61
2021/08/14 10:08:28;;;;;;;13.33;7.97;;;27.30;64.60;;;;;;5003370;28;20454;-60
2021/08/14 10:10:55;;;;;;;12.93;7.90;;;27.50;63.60;;;;;;5000380;28;20446;-62
2021/08/14 10:13:22;;;;;;;12.27;7.87;;;27.60;63.50;;;;;;5001408;28;20438;-60
2021/08/14 10:15:48;;;;;;;10.93;7.87;;;27.60;61.80;;;;;;5004866;28;20427;-60
2021/08/14 10:18:18;;;;;;;10.67;7.90;;;27.60;62.30;;;;;;5002497;28;20648;-61
2021/08/14 10:20:45;;;;;;;11.57;7.73;;;27.70;63.00;;;;;;5001694;28;20206;-61
2021/08/14 10:23:17;;;;;;;20.03;7.80;;;27.80;63.00;;;;;;5004120;28;20183;-59
2021/08/14 10:25:43;;;;;;;14.10;8.03;;;27.80;60.00;;;;;;5000697;28;20246;-61
2021/08/14 10:28:09;;;;;;;14.37;7.77;;;27.80;61.50;;;;;;5001627;28;20277;-61
2021/08/14 10:30:50;;;;;;;13.47;7.90;;;27.90;61.70;;;;;;5002881;28;20719;-61
2021/08/14 10:33:28;;;;;;;10.93;7.27;;;27.90;63.00;;;;;;4999791;28;20524;-61
2021/08/14 10:35:54;;;;;;;16.77;8.57;;;28.00;63.30;;;;;;5000767;28;20176;-59
2021/08/14 10:38:40;;;;;;;16.83;7.40;;;28.10;62.70;;;;;;4997012;28;20227;-61
2021/08/14 10:41:09;;;;;;;10.10;7.80;;;28.20;63.40;;;;;;5000565;28;20703;-60
2021/08/14 10:43:57;;;;;;;13.40;8.70;;;28.30;61.80;;;;;;5001926;28;20731;-60
2021/08/14 10:46:34;;;;;;;14.73;7.47;;;28.40;62.50;;;;;;5000278;28;20482;-60
2021/08/14 10:49:01;;;;;;;19.03;8.37;;;28.60;62.50;;;;;;5000423;28;20790;-60
2021/08/14 10:51:49;;;;;;;11.83;7.70;;;28.80;59.60;;;;;;4995889;28;20230;-60
2021/08/14 10:54:27;;;;;;;12.47;7.93;;;28.80;58.80;;;;;;5001923;28;20180;-60
2021/08/14 10:57:04;;;;;;;14.57;8.77;;;28.80;59.80;;;;;;5001358;28;20207;-61
2021/08/14 10:59:38;;;;;;;16.30;8.70;;;29.00;59.90;;;;;;4998193;28;20179;-60
2021/08/14 11:02:09;;;;;;;11.43;7.20;;;29.10;59.60;;;;;;5000865;28;20195;-62
2021/08/14 11:04:43;;;;;;;14.90;7.90;;;29.10;58.90;;;;;;5002060;28;20303;-60
2021/08/14 11:07:20;;;;;;;20.13;7.87;;;29.10;59.30;;;;;;5002823;28;20218;-61
2021/08/14 11:09:52;;;;;;;12.67;7.20;;;29.20;60.20;;;;;;5001779;28;20183;-62
2021/08/14 11:12:40;;;;;;;9.77;7.72;;;29.30;59.60;;;;;;5001938;28;20259;-60
2021/08/14 11:15:23;;;;;;;10.98;8.63;;;29.40;58.60;;;;;;5001600;28;20280;-60
2021/08/14 11:17:51;;;;;;;16.30;7.40;;;29.60;58.20;;;;;;5001084;28;20208;-60
2021/08/14 11:20:19;;;;;;;12.93;8.43;;;29.80;59.20;;;;;;4999698;28;20606;-59
2021/08/14 11:22:47;;;;;;;17.77;8.65;;;29.90;58.20;;;;;;5001039;28;20176;-61
2021/08/14 11:25:40;;;;;;;14.13;6.90;;;29.90;57.80;;;;;;5002991;28;20183;-60
2021/08/14 11:28:10;;;;;;;10.55;7.30;;;30.00;57.10;;;;;;5000146;28;20211;-60
2021/08/14 11:30:55;;;;;;;12.07;7.07;;;30.10;56.20;;;;;;5003304;28;20691;-60
2021/08/14 11:33:24;;;;;;;12.50;7.30;;;30.10;56.50;;;;;;4998673;28;20207;-59
2021/08/14 11:36:01;;;;;;;11.65;7.43;;;30.20;56.40;;;;;;5001309;28;20242;-61
2021/08/14 11:38:33;;;;;;;10.73;7.75;;;30.30;55.30;;;;;;5002156;28;20250;-60
2021/08/14 11:40:59;;;;;;;11.30;7.10;;;30.30;55.50;;;;;;5015284;28;20210;-59
2021/08/14 11:43:36;;;;;;;16.02;7.35;;;30.40;55.00;;;;;;5002814;28;20263;-60
2021/08/14 11:46:06;;;;;;;13.32;7.60;;;30.50;54.60;;;;;;5002451;28;20541;-60
2021/08/14 11:48:46;;;;;;;19.20;7.57;;;30.60;56.30;;;;;;4997174;28;20191;-60
2021/08/14 11:51:20;;;;;;;16.25;8.55;;;30.80;55.50;;;;;;5000417;28;20206;-60
2021/08/14 11:53:46;;;;;;;12.88;7.32;;;31.00;54.60;;;;;;5002656;28;20303;-61
2021/08/14 11:56:14;;;;;;;11.63;7.78;;;31.00;53.30;;;;;;5002298;28;20556;-60
2021/08/14 11:58:41;;;;;;;11.60;7.70;;;31.10;53.70;;;;;;5001782;28;20180;-60
2021/08/14 12:01:09;;;;;;;11.18;7.50;;;31.20;54.80;;;;;;5002405;28;20272;-60
2021/08/14 12:03:35;;;;;;;11.48;8.23;;;31.30;53.90;;;;;;4999461;28;20184;-60
2021/08/14 12:06:09;;;;;;;18.90;8.00;;;31.40;53.40;;;;;;5002661;28;20659;-61
2021/08/14 12:08:45;;;;;;;13.10;7.43;;;31.40;52.20;;;;;;5005954;28;20327;-62
2021/08/14 12:11:13;;;;;;;11.52;7.18;;;31.50;50.50;;;;;;5005734;28;20182;-60
2021/08/14 12:13:39;;;;;;;13.93;6.95;;;31.40;51.70;;;;;;5001119;28;20629;-60
2021/08/14 12:16:15;;;;;;;15.60;6.70;;;31.50;51.40;;;;;;5015193;28;20187;-62
2021/08/14 12:18:46;;;;;;;20.88;7.43;;;31.60;51.50;;;;;;5003967;28;20476;-61
2021/08/14 12:21:14;;;;;;;13.35;7.53;;;31.80;50.40;;;;;;5006160;28;20205;-60
2021/08/14 12:23:41;;;;;;;9.85;7.10;;;31.80;50.50;;;;;;5002996;28;20182;-60
2021/08/14 12:26:10;;;;;;;15.70;8.35;;;31.90;50.50;;;;;;5006403;28;20203;-60
2021/08/14 12:28:40;;;;;;;11.13;7.38;;;32.00;50.50;;;;;;5000215;28;20187;-61
2021/08/14 12:31:20;;;;;;;11.90;7.50;;;32.20;51.10;;;;;;5005159;28;20246;-60
2021/08/14 12:33:50;;;;;;;15.52;7.60;;;32.30;50.30;;;;;;5004469;28;20450;-61
2021/08/14 12:36:31;;;;;;;11.27;6.82;;;32.40;49.30;;;;;;5005040;28;20558;-62